Time;durP1;ratioP1;P1;durP2;ratioP2;P2;SDS_P1;SDS_P2;PMS_P1;PMS_P2;Temp;Humidity;BMP_temperature;BMP_pressure;BME280_temperature;BME280_humidity;BME280_pressure;Samples;Min_cycle;Max_cycle;Signal;HPM_P1;HPM_P2
2021/05/26 00:00:54;;;;;;;16.55;5.95;;;;;;;7.53;86.23;99330.81;5033350;28;20044;-60
2021/05/26 00:03:20;;;;;;;13.15;4.03;;;;;;;7.52;86.27;99317.72;5033698;28;20108;-60
2021/05/26 00:05:47;;;;;;;14.98;4.10;;;;;;;7.48;86.72;99320.00;5015629;28;20050;-60
2021/05/26 00:08:12;;;;;;;9.40;3.75;;;;;;;7.52;86.04;99312.38;5033790;28;20033;-60
2021/05/26 00:10:38;;;;;;;10.32;3.67;;;;;;;7.50;86.08;99309.94;5033371;28;20030;-60
2021/05/26 00:13:03;;;;;;;11.82;4.03;;;;;;;7.46;86.56;99311.44;5033591;28;20033;-60
2021/05/26 00:15:28;;;;;;;10.10;3.95;;;;;;;7.45;86.86;99311.63;5033171;28;20060;-60
2021/05/26 00:17:54;;;;;;;13.57;4.20;;;;;;;7.42;86.89;99307.56;5033509;28;20042;-60
2021/05/26 00:20:19;;;;;;;10.27;3.80;;;;;;;7.54;86.56;99308.47;5033264;28;20025;-60
2021/05/26 00:22:45;;;;;;;7.30;3.55;;;;;;;7.46;86.96;99308.75;5033423;28;20029;-60
2021/05/26 00:25:11;;;;;;;11.40;3.95;;;;;;;7.45;86.98;99311.63;5015457;28;20076;-60
2021/05/26 00:27:37;;;;;;;9.05;3.78;;;;;;;7.46;87.14;99303.44;5033253;28;20060;-60
2021/05/26 00:30:04;;;;;;;10.05;3.45;;;;;;;7.44;87.48;99300.16;4999288;28;20033;-60
2021/05/26 00:32:29;;;;;;;10.02;3.80;;;;;;;7.36;88.02;99308.41;5032884;28;20475;-60
2021/05/26 00:34:55;;;;;;;6.30;3.42;;;;;;;7.35;88.28;99306.81;5033229;28;20029;-60
2021/05/26 00:37:23;;;;;;;10.48;4.32;;;;;;;7.24;89.11;99304.84;5033009;28;20042;-60
2021/05/26 00:39:52;;;;;;;10.60;4.15;;;;;;;7.32;88.60;99307.25;5033234;28;20082;-60
2021/05/26 00:42:20;;;;;;;10.15;4.38;;;;;;;7.27;88.86;99304.41;5032670;28;20037;-60
2021/05/26 00:44:50;;;;;;;13.50;3.92;;;;;;;7.25;88.92;99306.47;5033120;28;20049;-61
2021/05/26 00:47:34;;;;;;;9.73;4.13;;;;;;;7.26;89.14;99302.78;5032361;28;20047;-61
2021/05/26 00:50:00;;;;;;;11.63;4.10;;;;;;;7.25;88.92;99301.16;5015769;28;20116;-60
2021/05/26 00:52:25;;;;;;;6.68;3.50;;;;;;;7.26;88.32;99297.44;5032631;28;20087;-61
2021/05/26 00:54:51;;;;;;;7.45;3.88;;;;;;;7.29;88.53;99307.69;5033009;28;20076;-61
2021/05/26 00:57:16;;;;;;;8.10;3.53;;;;;;;7.27;88.81;99299.09;5032573;28;20038;-60
2021/05/26 00:59:41;;;;;;;7.28;3.75;;;;;;;7.27;88.72;99304.41;5032979;28;20029;-61
2021/05/26 01:02:07;;;;;;;10.10;3.67;;;;;;;7.26;88.64;99292.09;5032489;28;20033;-60
2021/05/26 01:04:32;;;;;;;9.15;3.65;;;;;;;7.24;89.05;99294.16;5032948;28;20041;-60
2021/05/26 01:06:57;;;;;;;8.70;3.60;;;;;;;7.21;89.06;99294.63;5032428;28;20561;-61
2021/05/26 01:09:25;;;;;;;11.32;4.22;;;;;;;7.21;89.26;99286.63;5032865;28;20087;-61
2021/05/26 01:11:50;;;;;;;11.82;3.85;;;;;;;7.22;88.89;99277.59;5032462;28;20045;-61
2021/05/26 01:14:16;;;;;;;7.30;3.05;;;;;;;7.18;88.87;99279.06;5032545;28;20030;-60
2021/05/26 01:16:41;;;;;;;9.43;3.15;;;;;;;7.16;89.26;99273.13;5014687;28;20056;-60
2021/05/26 01:19:07;;;;;;;10.65;3.60;;;;;;;7.19;88.76;99264.69;5014954;28;20030;-61
2021/05/26 01:21:32;;;;;;;7.20;3.42;;;;;;;7.17;89.17;99267.59;5014494;28;20041;-60
2021/05/26 01:23:58;;;;;;;5.70;3.20;;;;;;;7.18;89.04;99265.75;5032756;28;20032;-60
2021/05/26 01:26:23;;;;;;;6.55;2.95;;;;;;;7.09;89.38;99266.03;5031735;28;20034;-60
2021/05/26 01:28:48;;;;;;;8.82;3.08;;;;;;;7.06;89.61;99261.16;5032640;28;20383;-60
2021/05/26 01:31:14;;;;;;;8.13;4.03;;;;;;;6.98;89.78;99258.72;5014720;28;20407;-60
2021/05/26 01:33:39;;;;;;;11.68;4.10;;;;;;;6.96;90.20;99258.13;5032661;28;20040;-60
2021/05/26 01:36:05;;;;;;;11.38;3.75;;;;;;;6.97;90.20;99251.78;5032132;28;20065;-61
2021/05/26 01:38:30;;;;;;;6.20;2.70;;;;;;;6.93;89.86;99252.44;5014990;28;20033;-60
2021/05/26 01:41:01;;;;;;;5.43;2.90;;;;;;;6.95;89.69;99253.84;5032149;28;20167;-60
2021/05/26 01:43:26;;;;;;;9.52;2.97;;;;;;;7.01;89.64;99233.50;5032530;28;20040;-60
2021/05/26 01:45:52;;;;;;;8.90;3.03;;;;;;;6.95;90.02;99237.84;5034421;28;20049;-60
2021/05/26 01:48:17;;;;;;;9.07;2.80;;;;;;;6.92;89.82;99232.97;5036325;28;20025;-61
2021/05/26 01:50:43;;;;;;;6.70;3.40;;;;;;;6.87;90.42;99236.28;5036060;28;20107;-60
2021/05/26 01:53:08;;;;;;;8.30;2.95;;;;;;;6.88;90.42;99232.56;5035984;28;20371;-61
2021/05/26 01:55:35;;;;;;;5.78;3.20;;;;;;;6.83;90.77;99224.41;5035740;28;20037;-60
2021/05/26 01:58:00;;;;;;;6.32;3.22;;;;;;;6.82;90.88;99225.47;5036018;28;20026;-60
2021/05/26 02:00:26;;;;;;;10.07;3.72;;;;;;;6.86;91.10;99228.50;5035539;28;20129;-60
2021/05/26 02:02:51;;;;;;;8.55;3.22;;;;;;;6.80;91.24;99218.72;5036120;28;20075;-61
2021/05/26 02:05:17;;;;;;;9.25;3.47;;;;;;;6.85;91.00;99221.56;5035462;28;20116;-61
2021/05/26 02:07:42;;;;;;;11.50;3.55;;;;;;;6.89;91.24;99217.44;5018277;28;20025;-60
2021/05/26 02:10:10;;;;;;;10.63;3.78;;;;;;;6.88;91.22;99215.78;5035427;28;20033;-60
2021/05/26 02:12:37;;;;;;;7.57;3.42;;;;;;;6.83;91.36;99212.97;5035721;28;20030;-60
2021/05/26 02:15:03;;;;;;;7.70;3.53;;;;;;;6.87;91.22;99216.81;5035416;28;20428;-61
2021/05/26 02:17:28;;;;;;;6.47;3.10;;;;;;;6.91;91.04;99210.00;5035489;28;20126;-60
2021/05/26 02:19:54;;;;;;;7.78;3.55;;;;;;;6.89;91.14;99209.44;5035680;28;20021;-60
2021/05/26 02:22:19;;;;;;;6.80;3.40;;;;;;;6.84;91.19;99206.56;5017631;28;20479;-60
2021/05/26 02:24:45;;;;;;;6.70;3.55;;;;;;;6.80;91.44;99200.88;5035626;28;20025;-60
2021/05/26 02:27:11;;;;;;;7.50;3.45;;;;;;;6.81;91.51;99199.03;5035037;28;20069;-60
2021/05/26 02:29:36;;;;;;;8.23;3.45;;;;;;;6.86;91.29;99196.53;5035707;28;20037;-60
2021/05/26 02:32:03;;;;;;;11.43;3.65;;;;;;;6.82;91.45;99190.03;5034995;28;20411;-60
2021/05/26 02:34:28;;;;;;;7.93;3.40;;;;;;;6.82;91.42;99187.34;5035603;28;20063;-60
2021/05/26 02:36:54;;;;;;;9.75;3.38;;;;;;;6.77;91.78;99188.00;5017364;28;20089;-60
2021/05/26 02:39:19;;;;;;;9.85;3.45;;;;;;;6.83;91.86;99178.31;5035552;28;20045;-61
2021/05/26 02:41:44;;;;;;;8.25;3.42;;;;;;;6.76;91.75;99177.56;5034991;28;20038;-60
2021/05/26 02:44:10;;;;;;;5.28;3.38;;;;;;;6.82;91.15;99184.69;5035526;28;20455;-60
2021/05/26 02:46:36;;;;;;;7.40;3.33;;;;;;;6.83;91.06;99178.31;5034816;28;20052;-60
2021/05/26 02:49:04;;;;;;;7.50;3.00;;;;;;;6.85;90.99;99173.59;5035129;28;20416;-61
2021/05/26 02:51:29;;;;;;;7.72;3.03;;;;;;;6.82;91.12;99171.38;5034657;28;20044;-60
2021/05/26 02:53:55;;;;;;;7.55;2.90;;;;;;;6.80;91.33;99168.91;5035003;28;20033;-60
2021/05/26 02:56:20;;;;;;;4.63;2.80;;;;;;;6.81;91.39;99165.22;5034387;28;20545;-60
2021/05/26 02:58:46;;;;;;;5.82;2.90;;;;;;;6.81;91.60;99161.72;5035224;28;20403;-60
2021/05/26 03:01:11;;;;;;;8.18;2.53;;;;;;;6.81;91.41;99162.53;5034541;28;20038;-61
2021/05/26 03:03:36;;;;;;;7.07;3.10;;;;;;;6.86;90.91;99156.56;5035163;28;20490;-61
2021/05/26 03:06:02;;;;;;;6.60;2.67;;;;;;;6.88;91.01;99159.81;5016579;28;20510;-60
2021/05/26 03:08:27;;;;;;;6.75;2.90;;;;;;;6.88;90.33;99159.81;5034851;28;20029;-60
2021/05/26 03:10:56;;;;;;;5.25;3.03;;;;;;;6.82;90.92;99150.88;5016592;28;20388;-61
2021/05/26 03:13:23;;;;;;;5.45;2.97;;;;;;;6.79;91.33;99147.81;5034786;28;20087;-60
2021/05/26 03:15:48;;;;;;;6.50;3.00;;;;;;;6.76;91.38;99146.41;5034599;28;20036;-60
2021/05/26 03:18:14;;;;;;;5.28;2.80;;;;;;;6.80;91.24;99149.47;5034435;28;20045;-60
2021/05/26 03:20:39;;;;;;;6.18;2.97;;;;;;;6.80;91.61;99149.47;5034159;28;20037;-60
2021/05/26 03:23:05;;;;;;;7.82;3.08;;;;;;;6.79;91.36;99148.66;5034602;28;20029;-60
2021/05/26 03:25:30;;;;;;;7.97;3.00;;;;;;;6.76;91.34;99140.28;5016202;28;20044;-60
2021/05/26 03:27:56;;;;;;;6.72;2.90;;;;;;;6.73;91.35;99140.72;5034064;28;20034;-60
2021/05/26 03:30:21;;;;;;;9.75;3.15;;;;;;;6.77;91.17;99141.91;5033956;28;20128;-60
2021/05/26 03:32:47;;;;;;;4.63;2.50;;;;;;;6.74;91.16;99142.34;5016811;28;20037;-60
2021/05/26 03:35:14;;;;;;;6.05;3.17;;;;;;;6.75;90.53;99138.66;5033904;28;20361;-60
2021/05/26 03:37:39;;;;;;;6.90;2.92;;;;;;;6.77;90.70;99139.25;5034325;28;20041;-60
2021/05/26 03:40:06;;;;;;;6.10;2.30;;;;;;;6.77;90.48;99129.41;5033692;28;20109;-59
2021/05/26 03:42:32;;;;;;;5.47;2.67;;;;;;;6.80;90.59;99128.16;5034359;28;20029;-60
2021/05/26 03:44:57;;;;;;;4.40;2.70;;;;;;;6.77;90.77;99128.59;5034266;28;20025;-60
2021/05/26 03:47:22;;;;;;;4.00;2.50;;;;;;;6.81;90.52;99132.44;5033640;28;20038;-60
2021/05/26 03:49:48;;;;;;;5.05;2.55;;;;;;;6.84;90.26;99134.66;5033946;28;20029;-60
2021/05/26 03:52:13;;;;;;;8.02;2.80;;;;;;;6.85;90.63;99122.97;5033552;28;20045;-60
2021/05/26 03:54:39;;;;;;;4.50;2.70;;;;;;;6.80;90.95;99120.97;5033732;28;20037;-59
2021/05/26 03:57:05;;;;;;;5.90;2.58;;;;;;;6.82;90.86;99123.44;5033534;28;20095;-60
2021/05/26 03:59:30;;;;;;;4.53;2.97;;;;;;;6.85;90.29;99117.66;5033982;28;20035;-59
2021/05/26 04:01:55;;;;;;;5.95;2.45;;;;;;;6.83;90.56;99111.72;5033383;28;20111;-60
2021/05/26 04:04:21;;;;;;;5.68;2.60;;;;;;;6.85;90.30;99110.47;5016105;28;20463;-60
2021/05/26 04:06:46;;;;;;;3.67;2.30;;;;;;;6.89;89.91;99110.84;5033217;28;20035;-60
2021/05/26 04:09:12;;;;;;;5.63;1.85;;;;;;;6.93;88.41;99109.34;5033125;28;20033;-60
2021/05/26 04:11:37;;;;;;;5.53;2.67;;;;;;;6.89;89.04;99110.84;5033251;28;20045;-60
2021/05/26 04:14:03;;;;;;;4.40;2.20;;;;;;;6.81;88.93;99106.59;5033447;28;20033;-59
2021/05/26 04:16:28;;;;;;;6.60;2.00;;;;;;;6.92;88.79;99110.41;5015211;28;20042;-60
2021/05/26 04:18:54;;;;;;;3.38;1.70;;;;;;;6.94;86.03;99107.50;5033512;28;20026;-59
2021/05/26 04:21:19;;;;;;;2.03;1.50;;;;;;;6.91;85.01;99095.44;5033010;28;20042;-59
2021/05/26 04:23:45;;;;;;;3.65;2.00;;;;;;;6.91;85.01;99103.44;5033450;28;20033;-60
2021/05/26 04:26:10;;;;;;;2.92;1.85;;;;;;;6.85;85.11;99099.81;5032939;28;20045;-60
2021/05/26 04:28:43;;;;;;;5.10;1.48;;;;;;;6.92;84.81;99099.75;5015798;28;20091;-60
2021/05/26 04:31:10;;;;;;;1.63;1.38;;;;;;;6.81;83.71;99106.59;5032922;28;20038;-60
2021/05/26 04:33:35;;;;;;;1.80;1.45;;;;;;;6.82;84.66;99099.44;5033187;28;20451;-60
2021/05/26 04:36:01;;;;;;;2.15;1.63;;;;;;;6.75;85.15;99093.38;5032714;28;20044;-60
2021/05/26 04:38:26;;;;;;;2.00;1.27;;;;;;;6.75;84.57;99094.19;5033094;28;20038;-61
2021/05/26 04:40:51;;;;;;;2.05;1.42;;;;;;;6.68;85.57;99088.09;5032755;28;20042;-60
2021/05/26 04:43:19;;;;;;;1.35;1.20;;;;;;;6.66;86.06;99090.16;5015699;28;20029;-60
2021/05/26 04:45:44;;;;;;;3.38;1.45;;;;;;;6.81;85.42;99087.16;5032825;28;20033;-60
2021/05/26 04:48:09;;;;;;;2.92;1.45;;;;;;;6.70;86.23;99081.53;5033153;28;20106;-60
2021/05/26 04:50:35;;;;;;;5.45;1.40;;;;;;;6.72;85.65;99083.16;5032692;28;20399;-60
2021/05/26 04:53:00;;;;;;;2.10;1.40;;;;;;;6.67;86.86;99081.16;5032851;28;20025;-60
2021/05/26 04:55:26;;;;;;;2.58;1.52;;;;;;;6.85;86.34;99072.34;5032415;28;20041;-60
2021/05/26 04:58:02;;;;;;;2.47;1.60;;;;;;;6.89;85.88;99078.88;5032850;28;20029;-60
2021/05/26 05:00:27;;;;;;;1.42;1.33;;;;;;;6.99;85.27;99068.53;5014979;28;20041;-60
2021/05/26 05:02:53;;;;;;;1.55;1.30;;;;;;;6.98;85.52;99066.88;5032702;28;20044;-60
2021/05/26 05:05:19;;;;;;;4.97;1.70;;;;;;;7.09;86.18;99068.81;5014846;28;20424;-60
2021/05/26 05:07:45;;;;;;;1.88;1.40;;;;;;;7.17;84.95;99062.34;5015045;28;20025;-60
2021/05/26 05:10:10;;;;;;;3.42;1.73;;;;;;;7.23;85.82;99058.78;5032342;28;20029;-60
2021/05/26 05:12:36;;;;;;;2.67;1.63;;;;;;;7.16;86.19;99055.38;5032815;28;20022;-59
2021/05/26 05:15:01;;;;;;;2.53;1.48;;;;;;;7.24;86.10;99057.75;4998282;28;20056;-61
2021/05/26 05:17:27;;;;;;;3.72;1.70;;;;;;;7.24;86.27;99054.25;5032627;28;20399;-60
2021/05/26 05:19:52;;;;;;;4.28;1.77;;;;;;;7.22;86.87;99049.16;5033302;28;20475;-60
2021/05/26 05:22:18;;;;;;;4.13;1.70;;;;;;;7.18;86.87;99045.31;5036262;28;20045;-60
2021/05/26 05:24:43;;;;;;;3.97;1.73;;;;;;;7.27;86.77;99048.50;5019067;28;20487;-60
2021/05/26 05:27:09;;;;;;;5.70;1.80;;;;;;;7.26;86.78;99046.84;5035782;28;20436;-60
2021/05/26 05:29:34;;;;;;;4.78;1.80;;;;;;;7.19;86.84;99046.13;5036441;28;20311;-60
2021/05/26 05:31:59;;;;;;;2.83;1.80;;;;;;;7.12;87.62;99047.03;5036090;28;20042;-60
2021/05/26 05:34:25;;;;;;;5.85;1.90;;;;;;;7.21;88.30;99054.72;5018686;28;20037;-60
2021/05/26 05:36:50;;;;;;;5.80;2.25;;;;;;;7.36;86.58;99047.13;5036047;28;20105;-60
2021/05/26 05:39:17;;;;;;;3.05;1.83;;;;;;;7.33;87.20;99052.91;5036310;28;20479;-60
2021/05/26 05:41:44;;;;;;;5.10;2.10;;;;;;;7.35;87.41;99043.66;5036164;28;20040;-59
2021/05/26 05:44:09;;;;;;;4.00;2.00;;;;;;;7.32;86.97;99048.63;5036546;28;20025;-61
2021/05/26 05:46:35;;;;;;;2.83;1.80;;;;;;;7.21;87.72;99049.38;5018162;28;20107;-59
2021/05/26 05:49:00;;;;;;;5.72;2.08;;;;;;;7.30;87.06;99045.38;5036227;28;20371;-61
2021/05/26 05:51:26;;;;;;;3.63;1.90;;;;;;;7.29;87.60;99046.41;5035691;28;20092;-61
2021/05/26 05:53:51;;;;;;;3.80;1.77;;;;;;;7.32;87.02;99040.63;5036263;28;20443;-61
2021/05/26 05:56:17;;;;;;;2.80;1.88;;;;;;;7.43;86.99;99050.50;5018306;28;20395;-61
2021/05/26 05:58:42;;;;;;;3.45;1.80;;;;;;;7.33;86.48;99036.91;5036229;28;20041;-59
2021/05/26 06:01:08;;;;;;;2.35;1.67;;;;;;;7.41;86.38;99044.59;5017843;28;20033;-60
2021/05/26 06:03:33;;;;;;;1.80;1.50;;;;;;;7.37;86.79;99037.28;5018190;28;20029;-60
2021/05/26 06:05:59;;;;;;;2.67;1.70;;;;;;;7.45;86.52;99031.63;5035376;28;20045;-60
2021/05/26 06:08:24;;;;;;;2.80;1.70;;;;;;;7.44;87.35;99033.50;5035809;28;20029;-60
2021/05/26 06:10:49;;;;;;;3.30;1.60;;;;;;;7.48;86.82;99034.66;5035389;28;20044;-60
2021/05/26 06:13:15;;;;;;;4.25;1.90;;;;;;;7.50;87.16;99037.91;5035839;28;20022;-60
2021/05/26 06:15:40;;;;;;;4.03;1.67;;;;;;;7.63;85.82;99025.41;5035305;28;20044;-60
2021/05/26 06:18:06;;;;;;;2.58;1.80;;;;;;;7.64;86.03;99035.03;5035643;28;20046;-61
2021/05/26 06:20:31;;;;;;;8.25;1.95;;;;;;;7.59;86.84;99034.91;5035194;28;20042;-60
2021/05/26 06:22:57;;;;;;;3.28;1.80;;;;;;;7.77;86.21;99034.84;5035493;28;20045;-61
2021/05/26 06:25:22;;;;;;;4.07;1.80;;;;;;;7.66;86.51;99030.28;5017661;28;20037;-60
2021/05/26 06:27:47;;;;;;;2.70;1.70;;;;;;;7.62;86.76;99029.13;5035457;28;20017;-60
2021/05/26 06:30:13;;;;;;;4.78;1.80;;;;;;;7.67;87.59;99023.94;5034970;28;20018;-60
2021/05/26 06:32:39;;;;;;;3.38;1.80;;;;;;;7.91;86.36;99025.63;5017343;28;20036;-60
2021/05/26 06:35:07;;;;;;;2.38;1.70;;;;;;;7.95;84.85;99029.44;5034793;28;20445;-60
2021/05/26 06:37:33;;;;;;;3.03;2.15;;;;;;;7.85;85.92;99023.84;5035292;28;20473;-61
2021/05/26 06:39:58;;;;;;;3.85;1.70;;;;;;;7.87;86.24;99028.97;5035665;28;20100;-60
2021/05/26 06:42:24;;;;;;;2.92;1.85;;;;;;;7.96;86.67;99028.41;5034869;28;20128;-61
2021/05/26 06:44:49;;;;;;;3.50;1.80;;;;;;;8.09;85.93;99019.34;5035353;28;20033;-60
2021/05/26 06:47:14;;;;;;;3.95;1.85;;;;;;;8.21;85.73;99022.00;5034840;28;20088;-61
2021/05/26 06:49:40;;;;;;;3.13;1.70;;;;;;;8.31;84.99;99027.63;5017356;28;20463;-60
2021/05/26 06:52:06;;;;;;;20.27;3.15;;;;;;;8.34;85.86;99021.81;5034596;28;20547;-60
2021/05/26 06:54:31;;;;;;;7.57;1.90;;;;;;;8.49;85.16;99017.88;5035073;28;20029;-60
2021/05/26 06:56:56;;;;;;;7.28;2.00;;;;;;;8.54;85.63;99026.00;5034691;28;20033;-61
2021/05/26 06:59:22;;;;;;;5.28;1.65;;;;;;;8.62;85.04;99023.78;5035107;28;20412;-60
2021/05/26 07:01:47;;;;;;;3.60;1.75;;;;;;;8.64;83.98;99026.22;5034518;28;20029;-60
2021/05/26 07:04:13;;;;;;;3.60;1.70;;;;;;;8.34;84.53;99021.81;5017423;28;20026;-60
2021/05/26 07:06:38;;;;;;;2.72;1.50;;;;;;;8.47;85.03;99020.78;5016725;28;20495;-60
2021/05/26 07:09:04;;;;;;;4.30;1.85;;;;;;;8.68;83.71;99015.88;5034941;28;20018;-60
2021/05/26 07:11:29;;;;;;;2.70;1.52;;;;;;;8.84;83.29;99017.81;5016708;28;20030;-61
2021/05/26 07:13:55;;;;;;;1.42;1.30;;;;;;;8.76;82.30;99013.66;5017070;28;20037;-60
2021/05/26 07:16:20;;;;;;;3.75;1.63;;;;;;;9.17;81.76;99003.75;5016426;28;20087;-60
2021/05/26 07:18:47;;;;;;;1.77;1.42;;;;;;;8.78;83.27;99014.22;5017006;28;20026;-60
2021/05/26 07:21:13;;;;;;;1.75;1.40;;;;;;;8.72;83.18;99001.81;5034302;28;20049;-60
2021/05/26 07:23:39;;;;;;;4.15;1.52;;;;;;;8.98;82.43;98999.63;5034089;28;20037;-60
2021/05/26 07:26:05;;;;;;;3.80;1.50;;;;;;;9.11;82.28;98999.38;5034305;28;20055;-61
2021/05/26 07:28:30;;;;;;;4.32;1.60;;;;;;;9.53;81.86;99003.59;5034547;28;20021;-60
2021/05/26 07:30:56;;;;;;;2.60;1.50;;;;;;;9.07;82.60;99003.56;5033979;28;20408;-61
2021/05/26 07:33:21;;;;;;;6.05;1.40;;;;;;;9.38;82.09;99009.47;5034274;28;20032;-60
2021/05/26 07:35:47;;;;;;;1.92;1.40;;;;;;;9.28;82.86;99005.59;5033971;28;20029;-60
2021/05/26 07:38:13;;;;;;;2.03;1.50;;;;;;;9.36;81.94;99008.91;5016430;28;20033;-61
2021/05/26 07:40:38;;;;;;;3.15;1.40;;;;;;;9.16;83.29;99007.50;5033782;28;20049;-60
2021/05/26 07:43:04;;;;;;;2.05;1.50;;;;;;;8.89;82.77;99006.44;5033244;28;20033;-61
2021/05/26 07:45:29;;;;;;;2.20;1.35;;;;;;;8.89;82.36;99001.88;5015988;28;20033;-60
2021/05/26 07:47:55;;;;;;;2.50;1.50;;;;;;;9.19;81.60;99006.22;5033925;28;20022;-60
2021/05/26 07:50:20;;;;;;;1.42;1.30;;;;;;;9.58;80.68;99001.81;5033753;28;20041;-60
2021/05/26 07:52:45;;;;;;;2.40;1.30;;;;;;;9.74;80.48;98996.75;5034146;28;20387;-60
2021/05/26 07:55:11;;;;;;;1.30;1.20;;;;;;;9.03;81.62;98995.19;5033320;28;20026;-60
2021/05/26 07:57:36;;;;;;;2.28;1.23;;;;;;;9.25;81.04;98995.34;5033951;28;20022;-61
2021/05/26 08:00:04;;;;;;;1.63;1.13;;;;;;;8.82;80.62;98998.53;5033403;28;20100;-60
2021/05/26 08:02:29;;;;;;;4.45;1.50;;;;;;;9.60;81.45;98997.03;5015966;28;20022;-60
2021/05/26 08:04:55;;;;;;;3.90;1.40;;;;;;;9.41;80.76;98996.47;5033634;28;20079;-60
2021/05/26 08:07:20;;;;;;;1.92;1.50;;;;;;;9.63;80.46;98988.53;5033281;28;20037;-61
2021/05/26 08:09:46;;;;;;;1.55;1.42;;;;;;;9.95;77.90;98987.97;5033758;28;20041;-60
2021/05/26 08:12:13;;;;;;;1.42;1.20;;;;;;;9.82;79.37;98986.44;5015535;28;20033;-60
2021/05/26 08:14:39;;;;;;;2.78;1.40;;;;;;;9.79;79.47;98983.44;5033369;28;20034;-60
2021/05/26 08:17:04;;;;;;;1.42;1.30;;;;;;;9.43;79.98;98986.31;5015159;28;20068;-59
2021/05/26 08:19:30;;;;;;;2.42;1.23;;;;;;;9.26;79.85;98986.28;5033455;28;20025;-59
2021/05/26 08:21:55;;;;;;;3.47;1.40;;;;;;;9.23;81.33;98984.06;5015306;28;20029;-59
2021/05/26 08:24:21;;;;;;;3.75;1.60;;;;;;;9.62;80.71;98984.22;5033538;28;20025;-60
2021/05/26 08:26:50;;;;;;;1.48;1.38;;;;;;;9.54;79.88;98981.97;5032990;28;20411;-60
2021/05/26 08:29:16;;;;;;;2.20;1.50;;;;;;;9.58;79.54;98971.56;5033297;28;20078;-59
2021/05/26 08:31:42;;;;;;;2.30;1.52;;;;;;;9.33;80.75;98967.41;5032901;28;20033;-60
2021/05/26 08:34:07;;;;;;;2.75;1.60;;;;;;;9.47;80.96;98970.59;5033490;28;20116;-59
2021/05/26 08:36:33;;;;;;;2.88;1.83;;;;;;;9.60;80.29;98977.50;5032961;28;20486;-59
2021/05/26 08:38:58;;;;;;;2.13;1.52;;;;;;;9.12;80.98;98973.44;5015918;28;20029;-60
2021/05/26 08:41:24;;;;;;;1.83;1.55;;;;;;;9.26;82.80;98972.91;5032754;28;20099;-59
2021/05/26 08:43:50;;;;;;;1.55;1.35;;;;;;;9.16;82.62;98970.06;5033204;28;20036;-59
2021/05/26 08:46:16;;;;;;;2.63;1.70;;;;;;;9.91;80.91;98968.91;5032493;28;20407;-60
2021/05/26 08:48:42;;;;;;;2.65;1.67;;;;;;;9.98;82.53;98967.94;5015502;28;20087;-60
2021/05/26 08:51:07;;;;;;;3.25;1.60;;;;;;;10.01;80.68;98956.72;5032509;28;20065;-60
2021/05/26 08:53:36;;;;;;;3.35;1.80;;;;;;;10.35;80.34;98957.50;5032717;28;20033;-60
2021/05/26 08:56:01;;;;;;;1.55;1.45;;;;;;;10.60;79.14;98957.03;5032629;28;20053;-60
2021/05/26 08:58:27;;;;;;;2.33;1.42;;;;;;;10.25;78.37;98949.31;5033276;28;20025;-60
2021/05/26 09:00:52;;;;;;;2.97;1.50;;;;;;;11.24;77.54;98945.69;5014775;28;20509;-60
2021/05/26 09:03:17;;;;;;;2.38;1.63;;;;;;;10.76;78.61;98945.44;5033083;28;20021;-60
2021/05/26 09:05:51;;;;;;;2.80;1.60;;;;;;;10.53;78.38;98951.88;5032352;28;20037;-60
2021/05/26 09:08:23;;;;;;;1.58;1.30;;;;;;;10.12;79.39;98945.13;5015989;28;20029;-60
2021/05/26 09:10:56;;;;;;;2.28;1.60;;;;;;;9.75;81.10;98945.63;5032323;28;20484;-59
2021/05/26 09:13:38;;;;;;;2.03;1.60;;;;;;;10.70;79.36;98943.75;5032287;28;20029;-59
2021/05/26 09:16:09;;;;;;;1.90;1.52;;;;;;;11.19;77.96;98941.06;5032305;28;20128;-60
2021/05/26 09:19:00;;;;;;;2.08;1.60;;;;;;;11.59;76.98;98933.66;5032783;28;20561;-59
2021/05/26 09:21:58;;;;;;;5.47;1.60;;;;;;;10.29;79.67;98940.56;5014447;28;20065;-60
2021/05/26 09:24:23;;;;;;;2.13;1.42;;;;;;;11.34;78.01;98926.19;5032224;28;20512;-61
2021/05/26 09:27:02;;;;;;;5.15;1.80;;;;;;;11.93;77.05;98926.16;5032415;28;20049;-59
2021/05/26 09:29:32;;;;;;;2.33;1.50;;;;;;;11.28;77.32;98919.94;5032665;28;20120;-60
2021/05/26 09:32:10;;;;;;;3.28;1.60;;;;;;;11.14;76.97;98918.78;5015067;28;20087;-60
2021/05/26 09:34:37;;;;;;;3.50;1.48;;;;;;;11.49;77.61;98910.22;5032702;28;20060;-59
2021/05/26 09:37:04;;;;;;;2.03;1.50;;;;;;;11.42;78.67;98905.06;5014449;28;20245;-60
2021/05/26 09:39:46;;;;;;;2.22;1.58;;;;;;;11.29;79.76;98907.38;5032546;28;20113;-60
2021/05/26 09:42:33;;;;;;;1.60;1.50;;;;;;;11.05;80.03;98898.81;5032135;28;20030;-60
2021/05/26 09:45:01;;;;;;;4.53;2.83;;;;;;;11.16;80.79;98897.88;5032526;28;20081;-60
2021/05/26 09:47:34;;;;;;;4.10;1.73;;;;;;;11.05;81.77;98901.50;5032344;28;20048;-60
2021/05/26 09:50:18;;;;;;;3.78;1.70;;;;;;;11.01;80.98;98902.00;5032696;28;20033;-59
2021/05/26 09:52:53;;;;;;;4.65;1.92;;;;;;;10.66;80.96;98901.63;5032299;28;20092;-60
2021/05/26 09:55:22;;;;;;;4.57;1.90;;;;;;;10.77;80.94;98898.00;5032189;28;20471;-60
2021/05/26 09:57:50;;;;;;;3.30;1.70;;;;;;;10.86;80.49;98891.13;5015092;28;20064;-60
2021/05/26 10:00:16;;;;;;;3.40;1.60;;;;;;;10.74;81.32;98899.31;5031861;28;20144;-59
2021/05/26 10:02:42;;;;;;;3.05;1.60;;;;;;;10.90;82.83;98891.44;5014745;28;20515;-59
2021/05/26 10:05:08;;;;;;;2.80;1.70;;;;;;;11.19;79.54;98889.31;5014257;28;20037;-59
2021/05/26 10:07:33;;;;;;;5.13;2.00;;;;;;;11.81;79.55;98887.91;5035325;28;20034;-60
2021/05/26 10:09:59;;;;;;;2.38;1.60;;;;;;;11.12;79.68;98883.34;5002023;28;20025;-60
2021/05/26 10:12:24;;;;;;;3.45;1.60;;;;;;;11.66;77.31;98880.56;5017329;28;20116;-60
2021/05/26 10:14:49;;;;;;;4.28;1.67;;;;;;;11.32;78.13;98888.06;5035770;28;20060;-60
2021/05/26 10:17:19;;;;;;;5.25;1.90;;;;;;;11.05;80.06;98877.38;5017525;28;20049;-60
2021/05/26 10:19:45;;;;;;;5.47;1.73;;;;;;;10.79;79.37;98875.25;5018765;28;20427;-59
2021/05/26 10:22:10;;;;;;;2.47;1.58;;;;;;;11.07;79.54;98875.25;5035441;28;20042;-59
2021/05/26 10:24:36;;;;;;;4.25;1.90;;;;;;;11.38;79.10;98877.13;5001910;28;20025;-60
2021/05/26 10:27:02;;;;;;;4.53;1.83;;;;;;;11.33;76.84;98874.41;5017519;28;20064;-60
2021/05/26 10:29:28;;;;;;;3.60;1.65;;;;;;;11.18;78.60;98871.56;5018279;28;20057;-59
2021/05/26 10:32:00;;;;;;;2.13;1.50;;;;;;;11.29;77.84;98864.44;5035154;28;20068;-59
2021/05/26 10:34:47;;;;;;;3.65;1.50;;;;;;;12.06;77.11;98865.81;5035504;28;20046;-59
2021/05/26 10:37:24;;;;;;;2.60;1.70;;;;;;;12.42;74.15;98864.06;5035252;28;20038;-60
2021/05/26 10:39:49;;;;;;;2.13;1.40;;;;;;;12.30;74.40;98867.00;5035677;28;20025;-60
2021/05/26 10:42:28;;;;;;;2.92;1.30;;;;;;;13.05;71.91;98866.63;5001082;28;20131;-59
2021/05/26 10:45:04;;;;;;;2.03;1.45;;;;;;;13.39;71.35;98852.69;5035440;28;20033;-60
2021/05/26 10:47:36;;;;;;;2.67;1.40;;;;;;;13.67;69.97;98861.28;5035284;28;20034;-60
2021/05/26 10:50:26;;;;;;;2.05;1.02;;;;;;;13.01;72.43;98857.50;5034913;28;20026;-60
2021/05/26 10:52:54;;;;;;;2.55;1.38;;;;;;;13.39;71.25;98855.38;5035247;28;20017;-60
2021/05/26 10:55:39;;;;;;;1.48;1.10;;;;;;;14.17;72.33;98844.19;5034287;28;20038;-60
2021/05/26 10:58:11;;;;;;;2.67;1.13;;;;;;;13.59;71.60;98852.69;5035066;28;20029;-60
2021/05/26 11:00:37;;;;;;;1.42;1.00;;;;;;;13.71;71.48;98840.81;5034545;28;20407;-60
2021/05/26 11:03:28;;;;;;;2.22;1.20;;;;;;;13.71;70.59;98838.94;5035164;28;20541;-60
2021/05/26 11:06:04;;;;;;;2.47;1.02;;;;;;;13.69;73.65;98837.59;5021321;28;20065;-60
2021/05/26 11:08:41;;;;;;;1.95;1.00;;;;;;;14.13;70.18;98840.44;5033449;28;20026;-60
2021/05/26 11:11:21;;;;;;;1.02;0.95;;;;;;;14.57;68.00;98836.22;5034557;28;20041;-60
2021/05/26 11:14:05;;;;;;;2.67;1.00;;;;;;;15.08;67.48;98830.50;5034725;28;20025;-60
2021/05/26 11:16:40;;;;;;;0.95;0.90;;;;;;;14.22;69.77;98824.50;5016194;28;20084;-60
2021/05/26 11:19:13;;;;;;;0.73;0.73;;;;;;;14.85;67.85;98822.03;5034716;28;20393;-60
2021/05/26 11:22:00;;;;;;;0.80;0.80;;;;;;;14.91;67.81;98819.31;5034235;28;20180;-60
2021/05/26 11:24:26;;;;;;;2.88;0.98;;;;;;;14.53;67.09;98824.38;5034954;28;20029;-60
2021/05/26 11:26:51;;;;;;;1.52;0.85;;;;;;;14.41;68.33;98817.41;5034171;28;20036;-60
2021/05/26 11:29:29;;;;;;;1.08;1.00;;;;;;;14.27;68.11;98816.38;5034399;28;20048;-60
2021/05/26 11:32:11;;;;;;;1.00;1.00;;;;;;;13.55;71.37;98811.25;5033741;28;20037;-60
2021/05/26 11:34:36;;;;;;;0.80;0.80;;;;;;;13.44;70.41;98815.00;5034291;28;20040;-59
2021/05/26 11:37:02;;;;;;;1.27;1.02;;;;;;;12.35;73.63;98803.56;5033747;28;20038;-59
2021/05/26 11:39:29;;;;;;;1.67;1.00;;;;;;;13.06;72.58;98814.47;5034139;28;20103;-60